sensor_id;sensor_type;location;lat;lon;timestamp;P1;durP1;ratioP1;P2;durP2;ratioP2
56718;SDS011;42597;40.636;0.278;2022-09-09T00:02:08;5.38;;;2.90;;
56718;SDS011;42597;40.636;0.278;2022-09-09T00:04:43;13.40;;;4.20;;
56718;SDS011;42597;40.636;0.278;2022-09-09T00:07:21;6.55;;;3.65;;
56718;SDS011;42597;40.636;0.278;2022-09-09T00:10:03;6.97;;;2.83;;
56718;SDS011;42597;40.636;0.278;2022-09-09T00:15:26;5.80;;;2.53;;
56718;SDS011;42597;40.636;0.278;2022-09-09T00:18:06;7.90;;;3.20;;
56718;SDS011;42597;40.636;0.278;2022-09-09T00:20:43;6.35;;;3.63;;
56718;SDS011;42597;40.636;0.278;2022-09-09T00:23:24;6.28;;;3.47;;
56718;SDS011;42597;40.636;0.278;2022-09-09T00:28:27;6.15;;;3.55;;
56718;SDS011;42597;40.636;0.278;2022-09-09T00:30:59;7.78;;;3.63;;
56718;SDS011;42597;40.636;0.278;2022-09-09T00:33:36;8.93;;;3.13;;
56718;SDS011;42597;40.636;0.278;2022-09-09T00:36:04;6.32;;;3.20;;
56718;SDS011;42597;40.636;0.278;2022-09-09T00:38:42;7.72;;;3.08;;
56718;SDS011;42597;40.636;0.278;2022-09-09T00:43:56;7.80;;;3.05;;
56718;SDS011;42597;40.636;0.278;2022-09-09T00:47:12;11.25;;;3.53;;
56718;SDS011;42597;40.636;0.278;2022-09-09T00:55:41;7.30;;;3.25;;
56718;SDS011;42597;40.636;0.278;2022-09-09T00:57:59;6.45;;;2.83;;
56718;SDS011;42597;40.636;0.278;2022-09-09T01:00:26;9.65;;;3.20;;
56718;SDS011;42597;40.636;0.278;2022-09-09T01:05:46;9.60;;;3.10;;
56718;SDS011;42597;40.636;0.278;2022-09-09T01:13:55;6.65;;;3.20;;
56718;SDS011;42597;40.636;0.278;2022-09-09T01:16:28;7.75;;;3.17;;
56718;SDS011;42597;40.636;0.278;2022-09-09T01:18:56;5.60;;;3.05;;
56718;SDS011;42597;40.636;0.278;2022-09-09T01:26:41;7.35;;;3.10;;
56718;SDS011;42597;40.636;0.278;2022-09-09T01:29:09;7.63;;;2.83;;
56718;SDS011;42597;40.636;0.278;2022-09-09T01:34:22;10.23;;;3.45;;
56718;SDS011;42597;40.636;0.278;2022-09-09T01:39:18;10.85;;;4.00;;
56718;SDS011;42597;40.636;0.278;2022-09-09T01:41:45;5.07;;;2.92;;
56718;SDS011;42597;40.636;0.278;2022-09-09T01:44:10;4.97;;;2.53;;
56718;SDS011;42597;40.636;0.278;2022-09-09T01:46:36;5.10;;;2.53;;
56718;SDS011;42597;40.636;0.278;2022-09-09T01:49:02;6.18;;;3.05;;
56718;SDS011;42597;40.636;0.278;2022-09-09T01:51:30;5.53;;;2.70;;
56718;SDS011;42597;40.636;0.278;2022-09-09T01:53:56;6.88;;;3.10;;
56718;SDS011;42597;40.636;0.278;2022-09-09T02:02:12;6.43;;;2.53;;
56718;SDS011;42597;40.636;0.278;2022-09-09T02:05:07;8.55;;;3.38;;
56718;SDS011;42597;40.636;0.278;2022-09-09T02:07:48;10.00;;;3.50;;
56718;SDS011;42597;40.636;0.278;2022-09-09T02:10:20;6.57;;;2.47;;
56718;SDS011;42597;40.636;0.278;2022-09-09T02:12:54;7.97;;;2.72;;
56718;SDS011;42597;40.636;0.278;2022-09-09T02:15:32;5.15;;;2.72;;
56718;SDS011;42597;40.636;0.278;2022-09-09T02:18:06;9.40;;;2.80;;
56718;SDS011;42597;40.636;0.278;2022-09-09T02:20:38;9.18;;;2.83;;
56718;SDS011;42597;40.636;0.278;2022-09-09T02:23:04;8.27;;;3.17;;
56718;SDS011;42597;40.636;0.278;2022-09-09T02:25:33;4.90;;;2.10;;
56718;SDS011;42597;40.636;0.278;2022-09-09T02:28:00;7.80;;;2.38;;
56718;SDS011;42597;40.636;0.278;2022-09-09T02:30:29;8.95;;;2.95;;
56718;SDS011;42597;40.636;0.278;2022-09-09T02:32:57;5.57;;;2.22;;
56718;SDS011;42597;40.636;0.278;2022-09-09T02:35:26;5.35;;;2.40;;
56718;SDS011;42597;40.636;0.278;2022-09-09T02:37:56;6.97;;;2.85;;
56718;SDS011;42597;40.636;0.278;2022-09-09T02:40:26;4.60;;;2.42;;
56718;SDS011;42597;40.636;0.278;2022-09-09T02:42:53;4.63;;;2.30;;
56718;SDS011;42597;40.636;0.278;2022-09-09T02:45:20;7.20;;;2.83;;
56718;SDS011;42597;40.636;0.278;2022-09-09T02:50:33;6.18;;;2.22;;
56718;SDS011;42597;40.636;0.278;2022-09-09T02:55:47;3.78;;;2.22;;
56718;SDS011;42597;40.636;0.278;2022-09-09T03:00:51;10.68;;;2.22;;
56718;SDS011;42597;40.636;0.278;2022-09-09T03:03:18;3.72;;;1.98;;
56718;SDS011;42597;40.636;0.278;2022-09-09T03:05:45;5.60;;;2.25;;
56718;SDS011;42597;40.636;0.278;2022-09-09T03:08:11;6.88;;;2.08;;
56718;SDS011;42597;40.636;0.278;2022-09-09T03:10:38;5.13;;;2.10;;
56718;SDS011;42597;40.636;0.278;2022-09-09T03:13:03;7.10;;;2.05;;
56718;SDS011;42597;40.636;0.278;2022-09-09T03:15:31;2.25;;;1.20;;
56718;SDS011;42597;40.636;0.278;2022-09-09T03:17:58;3.03;;;1.30;;
56718;SDS011;42597;40.636;0.278;2022-09-09T03:20:25;2.53;;;1.42;;
56718;SDS011;42597;40.636;0.278;2022-09-09T03:22:54;4.18;;;1.38;;
56718;SDS011;42597;40.636;0.278;2022-09-09T03:25:21;2.83;;;1.40;;
56718;SDS011;42597;40.636;0.278;2022-09-09T03:27:51;3.55;;;1.10;;
56718;SDS011;42597;40.636;0.278;2022-09-09T03:30:20;1.00;;;0.80;;
56718;SDS011;42597;40.636;0.278;2022-09-09T03:32:46;3.97;;;1.15;;
56718;SDS011;42597;40.636;0.278;2022-09-09T03:35:13;1.90;;;0.88;;
56718;SDS011;42597;40.636;0.278;2022-09-09T03:37:38;2.88;;;1.20;;
56718;SDS011;42597;40.636;0.278;2022-09-09T03:40:04;4.45;;;1.23;;
56718;SDS011;42597;40.636;0.278;2022-09-09T03:42:31;2.97;;;1.42;;
56718;SDS011;42597;40.636;0.278;2022-09-09T03:44:57;2.13;;;1.23;;
56718;SDS011;42597;40.636;0.278;2022-09-09T03:47:23;2.05;;;1.10;;
56718;SDS011;42597;40.636;0.278;2022-09-09T03:49:48;4.10;;;1.52;;
56718;SDS011;42597;40.636;0.278;2022-09-09T03:52:14;4.55;;;1.40;;
56718;SDS011;42597;40.636;0.278;2022-09-09T03:54:41;2.85;;;0.80;;
56718;SDS011;42597;40.636;0.278;2022-09-09T03:57:08;2.20;;;0.98;;
56718;SDS011;42597;40.636;0.278;2022-09-09T03:59:34;3.67;;;1.23;;
56718;SDS011;42597;40.636;0.278;2022-09-09T04:02:00;2.63;;;0.70;;
56718;SDS011;42597;40.636;0.278;2022-09-09T04:04:26;1.65;;;0.75;;
56718;SDS011;42597;40.636;0.278;2022-09-09T04:06:52;1.70;;;0.93;;
56718;SDS011;42597;40.636;0.278;2022-09-09T04:09:18;1.27;;;0.77;;
56718;SDS011;42597;40.636;0.278;2022-09-09T04:11:44;0.85;;;0.60;;
56718;SDS011;42597;40.636;0.278;2022-09-09T04:14:11;2.50;;;1.00;;
56718;SDS011;42597;40.636;0.278;2022-09-09T04:16:37;4.25;;;1.40;;
56718;SDS011;42597;40.636;0.278;2022-09-09T04:19:04;1.77;;;1.00;;
56718;SDS011;42597;40.636;0.278;2022-09-09T04:21:30;2.80;;;1.33;;
56718;SDS011;42597;40.636;0.278;2022-09-09T04:23:56;1.73;;;1.08;;
56718;SDS011;42597;40.636;0.278;2022-09-09T04:26:21;2.53;;;0.80;;
56718;SDS011;42597;40.636;0.278;2022-09-09T04:28:47;2.55;;;1.00;;
56718;SDS011;42597;40.636;0.278;2022-09-09T04:31:17;2.63;;;0.95;;
56718;SDS011;42597;40.636;0.278;2022-09-09T04:33:46;1.88;;;0.85;;
56718;SDS011;42597;40.636;0.278;2022-09-09T04:36:12;1.23;;;0.82;;
56718;SDS011;42597;40.636;0.278;2022-09-09T04:38:38;4.20;;;1.00;;
56718;SDS011;42597;40.636;0.278;2022-09-09T04:41:03;1.08;;;0.75;;
56718;SDS011;42597;40.636;0.278;2022-09-09T04:43:29;1.70;;;0.80;;
56718;SDS011;42597;40.636;0.278;2022-09-09T04:45:55;1.27;;;0.90;;
56718;SDS011;42597;40.636;0.278;2022-09-09T04:48:21;0.60;;;0.60;;
56718;SDS011;42597;40.636;0.278;2022-09-09T04:51:06;2.15;;;1.05;;
56718;SDS011;42597;40.636;0.278;2022-09-09T04:53:34;1.52;;;0.85;;
56718;SDS011;42597;40.636;0.278;2022-09-09T04:56:04;1.33;;;0.70;;
56718;SDS011;42597;40.636;0.278;2022-09-09T04:58:31;1.13;;;0.65;;
56718;SDS011;42597;40.636;0.278;2022-09-09T05:01:03;4.32;;;1.35;;
56718;SDS011;42597;40.636;0.278;2022-09-09T05:03:30;3.00;;;0.75;;
56718;SDS011;42597;40.636;0.278;2022-09-09T05:06:03;5.78;;;1.35;;
56718;SDS011;42597;40.636;0.278;2022-09-09T05:08:39;3.72;;;1.27;;
56718;SDS011;42597;40.636;0.278;2022-09-09T05:13:47;6.85;;;1.08;;
56718;SDS011;42597;40.636;0.278;2022-09-09T05:16:13;1.77;;;0.90;;
56718;SDS011;42597;40.636;0.278;2022-09-09T05:18:39;0.80;;;0.60;;
56718;SDS011;42597;40.636;0.278;2022-09-09T05:21:06;2.08;;;0.95;;
56718;SDS011;42597;40.636;0.278;2022-09-09T05:23:33;4.20;;;1.50;;
56718;SDS011;42597;40.636;0.278;2022-09-09T05:25:59;3.30;;;1.27;;
56718;SDS011;42597;40.636;0.278;2022-09-09T05:28:25;3.20;;;1.15;;
56718;SDS011;42597;40.636;0.278;2022-09-09T05:30:55;1.00;;;0.60;;
56718;SDS011;42597;40.636;0.278;2022-09-09T05:33:25;4.00;;;1.10;;
56718;SDS011;42597;40.636;0.278;2022-09-09T05:38:28;2.17;;;0.90;;
56718;SDS011;42597;40.636;0.278;2022-09-09T05:40:54;0.95;;;0.70;;
56718;SDS011;42597;40.636;0.278;2022-09-09T05:43:21;1.77;;;0.73;;
56718;SDS011;42597;40.636;0.278;2022-09-09T05:45:47;0.47;;;0.32;;
56718;SDS011;42597;40.636;0.278;2022-09-09T05:48:16;1.63;;;0.60;;
56718;SDS011;42597;40.636;0.278;2022-09-09T05:50:43;1.35;;;0.80;;
56718;SDS011;42597;40.636;0.278;2022-09-09T05:53:10;1.80;;;0.80;;
56718;SDS011;42597;40.636;0.278;2022-09-09T05:55:36;1.83;;;0.70;;
56718;SDS011;42597;40.636;0.278;2022-09-09T05:58:01;0.43;;;0.40;;
56718;SDS011;42597;40.636;0.278;2022-09-09T06:00:27;1.77;;;0.82;;
56718;SDS011;42597;40.636;0.278;2022-09-09T06:02:54;2.50;;;1.02;;
56718;SDS011;42597;40.636;0.278;2022-09-09T06:05:20;6.10;;;0.77;;
56718;SDS011;42597;40.636;0.278;2022-09-09T06:07:47;3.28;;;0.50;;
56718;SDS011;42597;40.636;0.278;2022-09-09T06:10:13;1.67;;;0.73;;
56718;SDS011;42597;40.636;0.278;2022-09-09T06:12:39;2.38;;;1.58;;
56718;SDS011;42597;40.636;0.278;2022-09-09T06:15:05;2.55;;;1.05;;
56718;SDS011;42597;40.636;0.278;2022-09-09T06:17:32;1.98;;;0.90;;
56718;SDS011;42597;40.636;0.278;2022-09-09T06:19:57;2.63;;;1.40;;
56718;SDS011;42597;40.636;0.278;2022-09-09T06:22:23;4.22;;;0.73;;
56718;SDS011;42597;40.636;0.278;2022-09-09T06:24:48;1.77;;;0.68;;
56718;SDS011;42597;40.636;0.278;2022-09-09T06:27:14;2.50;;;1.02;;
56718;SDS011;42597;40.636;0.278;2022-09-09T06:29:40;0.75;;;0.55;;
56718;SDS011;42597;40.636;0.278;2022-09-09T06:32:05;2.53;;;1.00;;
56718;SDS011;42597;40.636;0.278;2022-09-09T06:34:33;0.73;;;0.57;;
56718;SDS011;42597;40.636;0.278;2022-09-09T06:36:59;5.00;;;2.13;;
56718;SDS011;42597;40.636;0.278;2022-09-09T06:39:25;4.22;;;2.28;;
56718;SDS011;42597;40.636;0.278;2022-09-09T06:41:51;5.47;;;3.53;;
56718;SDS011;42597;40.636;0.278;2022-09-09T06:44:18;3.92;;;2.17;;
56718;SDS011;42597;40.636;0.278;2022-09-09T06:46:44;2.42;;;1.15;;
56718;SDS011;42597;40.636;0.278;2022-09-09T06:49:12;3.08;;;1.10;;
56718;SDS011;42597;40.636;0.278;2022-09-09T06:51:39;0.95;;;0.57;;
56718;SDS011;42597;40.636;0.278;2022-09-09T06:56:35;4.00;;;1.98;;
56718;SDS011;42597;40.636;0.278;2022-09-09T06:59:06;6.63;;;3.85;;
56718;SDS011;42597;40.636;0.278;2022-09-09T07:01:37;3.58;;;1.70;;
56718;SDS011;42597;40.636;0.278;2022-09-09T07:04:07;3.22;;;0.85;;
56718;SDS011;42597;40.636;0.278;2022-09-09T07:06:38;2.50;;;0.60;;
56718;SDS011;42597;40.636;0.278;2022-09-09T07:09:09;5.53;;;1.38;;
56718;SDS011;42597;40.636;0.278;2022-09-09T07:14:07;2.40;;;0.60;;
56718;SDS011;42597;40.636;0.278;2022-09-09T07:16:34;2.30;;;0.80;;
56718;SDS011;42597;40.636;0.278;2022-09-09T07:19:02;2.88;;;0.60;;
56718;SDS011;42597;40.636;0.278;2022-09-09T07:21:29;1.65;;;0.82;;
56718;SDS011;42597;40.636;0.278;2022-09-09T07:23:56;2.33;;;0.50;;
56718;SDS011;42597;40.636;0.278;2022-09-09T07:26:27;0.47;;;0.40;;
56718;SDS011;42597;40.636;0.278;2022-09-09T07:28:54;0.70;;;0.50;;
56718;SDS011;42597;40.636;0.278;2022-09-09T07:31:22;1.10;;;0.68;;
56718;SDS011;42597;40.636;0.278;2022-09-09T07:33:53;1.13;;;0.43;;
56718;SDS011;42597;40.636;0.278;2022-09-09T07:36:20;1.33;;;0.70;;
56718;SDS011;42597;40.636;0.278;2022-09-09T07:38:51;0.40;;;0.40;;
56718;SDS011;42597;40.636;0.278;2022-09-09T07:41:29;1.63;;;0.68;;
56718;SDS011;42597;40.636;0.278;2022-09-09T07:43:59;2.45;;;1.10;;
56718;SDS011;42597;40.636;0.278;2022-09-09T07:46:28;2.42;;;0.80;;
56718;SDS011;42597;40.636;0.278;2022-09-09T07:48:54;1.23;;;0.60;;
56718;SDS011;42597;40.636;0.278;2022-09-09T07:51:25;2.53;;;1.30;;
56718;SDS011;42597;40.636;0.278;2022-09-09T07:53:54;3.35;;;1.30;;
56718;SDS011;42597;40.636;0.278;2022-09-09T07:56:25;6.63;;;1.40;;
56718;SDS011;42597;40.636;0.278;2022-09-09T07:58:52;0.50;;;0.43;;
56718;SDS011;42597;40.636;0.278;2022-09-09T08:06:28;3.72;;;1.45;;
56718;SDS011;42597;40.636;0.278;2022-09-09T08:08:55;6.05;;;1.88;;
56718;SDS011;42597;40.636;0.278;2022-09-09T08:11:22;2.85;;;1.35;;
56718;SDS011;42597;40.636;0.278;2022-09-09T08:13:50;1.70;;;0.80;;
56718;SDS011;42597;40.636;0.278;2022-09-09T08:16:20;1.10;;;0.70;;
56718;SDS011;42597;40.636;0.278;2022-09-09T08:18:49;0.93;;;0.75;;
56718;SDS011;42597;40.636;0.278;2022-09-09T08:21:16;2.63;;;1.35;;
56718;SDS011;42597;40.636;0.278;2022-09-09T08:23:44;13.77;;;5.88;;
56718;SDS011;42597;40.636;0.278;2022-09-09T08:26:13;7.20;;;2.92;;
56718;SDS011;42597;40.636;0.278;2022-09-09T08:28:48;4.65;;;2.08;;
56718;SDS011;42597;40.636;0.278;2022-09-09T08:31:17;5.95;;;2.55;;
56718;SDS011;42597;40.636;0.278;2022-09-09T08:33:46;3.08;;;1.17;;
56718;SDS011;42597;40.636;0.278;2022-09-09T08:36:14;3.33;;;1.23;;
56718;SDS011;42597;40.636;0.278;2022-09-09T08:38:42;1.85;;;0.65;;
56718;SDS011;42597;40.636;0.278;2022-09-09T08:42:12;4.00;;;0.90;;
56718;SDS011;42597;40.636;0.278;2022-09-09T08:47:11;1.92;;;0.82;;
56718;SDS011;42597;40.636;0.278;2022-09-09T08:55:44;3.00;;;0.60;;
56718;SDS011;42597;40.636;0.278;2022-09-09T08:58:11;1.67;;;0.70;;
56718;SDS011;42597;40.636;0.278;2022-09-09T09:11:45;3.22;;;1.02;;
56718;SDS011;42597;40.636;0.278;2022-09-09T09:14:18;4.03;;;1.23;;
56718;SDS011;42597;40.636;0.278;2022-09-09T09:16:56;2.20;;;0.75;;
56718;SDS011;42597;40.636;0.278;2022-09-09T09:19:35;1.85;;;0.90;;
56718;SDS011;42597;40.636;0.278;2022-09-09T09:27:14;3.47;;;0.82;;
56718;SDS011;42597;40.636;0.278;2022-09-09T09:29:45;6.03;;;1.08;;
56718;SDS011;42597;40.636;0.278;2022-09-09T09:32:13;2.15;;;1.00;;
56718;SDS011;42597;40.636;0.278;2022-09-09T09:34:41;2.15;;;0.88;;
56718;SDS011;42597;40.636;0.278;2022-09-09T09:37:15;1.85;;;1.00;;
56718;SDS011;42597;40.636;0.278;2022-09-09T09:39:45;2.25;;;0.95;;
56718;SDS011;42597;40.636;0.278;2022-09-09T09:42:15;4.05;;;1.23;;
56718;SDS011;42597;40.636;0.278;2022-09-09T09:44:42;0.88;;;0.60;;
56718;SDS011;42597;40.636;0.278;2022-09-09T09:47:12;0.70;;;0.45;;
56718;SDS011;42597;40.636;0.278;2022-09-09T09:49:58;0.98;;;0.50;;
56718;SDS011;42597;40.636;0.278;2022-09-09T09:52:26;0.98;;;0.70;;
56718;SDS011;42597;40.636;0.278;2022-09-09T09:54:54;1.50;;;0.70;;
56718;SDS011;42597;40.636;0.278;2022-09-09T09:57:26;1.08;;;0.70;;
56718;SDS011;42597;40.636;0.278;2022-09-09T10:02:47;1.23;;;0.45;;
56718;SDS011;42597;40.636;0.278;2022-09-09T10:05:21;3.28;;;0.63;;
56718;SDS011;42597;40.636;0.278;2022-09-09T10:10:49;2.15;;;0.65;;
56718;SDS011;42597;40.636;0.278;2022-09-09T10:13:25;1.42;;;0.70;;
56718;SDS011;42597;40.636;0.278;2022-09-09T10:16:08;1.55;;;0.80;;
56718;SDS011;42597;40.636;0.278;2022-09-09T10:24:57;1.60;;;1.30;;
56718;SDS011;42597;40.636;0.278;2022-09-09T10:28:06;1.00;;;0.70;;
56718;SDS011;42597;40.636;0.278;2022-09-09T10:33:08;0.80;;;0.63;;
56718;SDS011;42597;40.636;0.278;2022-09-09T10:38:33;0.95;;;0.68;;
56718;SDS011;42597;40.636;0.278;2022-09-09T10:49:19;0.68;;;0.60;;
56718;SDS011;42597;40.636;0.278;2022-09-09T10:51:51;2.83;;;0.77;;
56718;SDS011;42597;40.636;0.278;2022-09-09T10:57:08;1.02;;;0.68;;
56718;SDS011;42597;40.636;0.278;2022-09-09T10:59:43;0.85;;;0.45;;
56718;SDS011;42597;40.636;0.278;2022-09-09T11:02:16;1.00;;;0.75;;
56718;SDS011;42597;40.636;0.278;2022-09-09T11:04:53;2.22;;;0.85;;
56718;SDS011;42597;40.636;0.278;2022-09-09T11:07:26;4.70;;;0.57;;
56718;SDS011;42597;40.636;0.278;2022-09-09T11:10:00;5.97;;;1.58;;
56718;SDS011;42597;40.636;0.278;2022-09-09T11:12:31;0.52;;;0.40;;
56718;SDS011;42597;40.636;0.278;2022-09-09T11:15:17;0.73;;;0.60;;
56718;SDS011;42597;40.636;0.278;2022-09-09T11:17:58;0.90;;;0.60;;
56718;SDS011;42597;40.636;0.278;2022-09-09T11:20:26;2.05;;;0.70;;
56718;SDS011;42597;40.636;0.278;2022-09-09T11:25:42;1.50;;;0.93;;
56718;SDS011;42597;40.636;0.278;2022-09-09T11:36:30;1.90;;;0.80;;
56718;SDS011;42597;40.636;0.278;2022-09-09T11:39:21;1.20;;;0.73;;
56718;SDS011;42597;40.636;0.278;2022-09-09T11:41:53;0.80;;;0.50;;
56718;SDS011;42597;40.636;0.278;2022-09-09T11:44:36;3.75;;;1.45;;
56718;SDS011;42597;40.636;0.278;2022-09-09T11:47:02;1.20;;;0.70;;
56718;SDS011;42597;40.636;0.278;2022-09-09T11:49:29;1.90;;;0.80;;
56718;SDS011;42597;40.636;0.278;2022-09-09T11:52:19;2.08;;;0.82;;
56718;SDS011;42597;40.636;0.278;2022-09-09T11:54:48;1.42;;;0.75;;
56718;SDS011;42597;40.636;0.278;2022-09-09T11:57:25;1.40;;;0.82;;
56718;SDS011;42597;40.636;0.278;2022-09-09T11:59:57;0.73;;;0.60;;
56718;SDS011;42597;40.636;0.278;2022-09-09T12:02:25;1.48;;;0.65;;
56718;SDS011;42597;40.636;0.278;2022-09-09T12:05:05;0.73;;;0.65;;
56718;SDS011;42597;40.636;0.278;2022-09-09T12:12:55;1.55;;;0.70;;
56718;SDS011;42597;40.636;0.278;2022-09-09T12:15:32;0.98;;;0.70;;
56718;SDS011;42597;40.636;0.278;2022-09-09T12:17:58;1.13;;;0.77;;
56718;SDS011;42597;40.636;0.278;2022-09-09T12:22:58;0.73;;;0.70;;
56718;SDS011;42597;40.636;0.278;2022-09-09T12:33:55;1.42;;;0.85;;
56718;SDS011;42597;40.636;0.278;2022-09-09T12:36:34;1.40;;;0.90;;
56718;SDS011;42597;40.636;0.278;2022-09-09T12:39:09;1.10;;;0.70;;
56718;SDS011;42597;40.636;0.278;2022-09-09T12:41:50;0.95;;;0.70;;
56718;SDS011;42597;40.636;0.278;2022-09-09T12:44:22;2.70;;;0.85;;
56718;SDS011;42597;40.636;0.278;2022-09-09T12:46:50;4.45;;;1.98;;
56718;SDS011;42597;40.636;0.278;2022-09-09T12:49:31;1.25;;;0.88;;
56718;SDS011;42597;40.636;0.278;2022-09-09T12:52:14;4.65;;;0.82;;
56718;SDS011;42597;40.636;0.278;2022-09-09T12:54:48;7.13;;;1.65;;
56718;SDS011;42597;40.636;0.278;2022-09-09T12:57:16;5.47;;;1.85;;
56718;SDS011;42597;40.636;0.278;2022-09-09T12:59:43;5.15;;;1.58;;
56718;SDS011;42597;40.636;0.278;2022-09-09T13:02:22;4.43;;;1.88;;
56718;SDS011;42597;40.636;0.278;2022-09-09T13:04:50;2.85;;;1.42;;
56718;SDS011;42597;40.636;0.278;2022-09-09T13:07:17;4.80;;;1.85;;
56718;SDS011;42597;40.636;0.278;2022-09-09T13:09:44;2.17;;;1.40;;
56718;SDS011;42597;40.636;0.278;2022-09-09T13:12:13;8.82;;;1.65;;
56718;SDS011;42597;40.636;0.278;2022-09-09T13:14:49;2.85;;;1.65;;
56718;SDS011;42597;40.636;0.278;2022-09-09T13:17:22;3.97;;;1.60;;
56718;SDS011;42597;40.636;0.278;2022-09-09T13:19:50;2.30;;;1.02;;
56718;SDS011;42597;40.636;0.278;2022-09-09T13:24:46;7.25;;;1.40;;
56718;SDS011;42597;40.636;0.278;2022-09-09T13:27:26;6.65;;;1.75;;
56718;SDS011;42597;40.636;0.278;2022-09-09T13:29:55;1.55;;;1.20;;
56718;SDS011;42597;40.636;0.278;2022-09-09T13:32:22;4.03;;;1.33;;
56718;SDS011;42597;40.636;0.278;2022-09-09T13:37:37;2.53;;;1.05;;
56718;SDS011;42597;40.636;0.278;2022-09-09T13:40:06;3.78;;;1.30;;
56718;SDS011;42597;40.636;0.278;2022-09-09T13:42:42;3.47;;;1.52;;
56718;SDS011;42597;40.636;0.278;2022-09-09T13:45:19;1.80;;;1.30;;
56718;SDS011;42597;40.636;0.278;2022-09-09T13:47:46;2.47;;;0.82;;
56718;SDS011;42597;40.636;0.278;2022-09-09T13:50:24;2.85;;;1.20;;
56718;SDS011;42597;40.636;0.278;2022-09-09T13:52:51;6.68;;;1.75;;
56718;SDS011;42597;40.636;0.278;2022-09-09T13:55:22;2.90;;;1.42;;
56718;SDS011;42597;40.636;0.278;2022-09-09T13:57:56;4.80;;;1.50;;
56718;SDS011;42597;40.636;0.278;2022-09-09T14:00:24;6.25;;;1.67;;
56718;SDS011;42597;40.636;0.278;2022-09-09T14:02:50;2.13;;;1.23;;
56718;SDS011;42597;40.636;0.278;2022-09-09T14:05:16;2.15;;;1.10;;
56718;SDS011;42597;40.636;0.278;2022-09-09T14:07:43;2.85;;;1.50;;
56718;SDS011;42597;40.636;0.278;2022-09-09T14:10:09;3.70;;;1.60;;
56718;SDS011;42597;40.636;0.278;2022-09-09T14:12:36;2.85;;;1.00;;
56718;SDS011;42597;40.636;0.278;2022-09-09T14:15:02;2.67;;;1.10;;
56718;SDS011;42597;40.636;0.278;2022-09-09T14:17:29;2.45;;;1.30;;
56718;SDS011;42597;40.636;0.278;2022-09-09T14:19:56;2.85;;;1.10;;
56718;SDS011;42597;40.636;0.278;2022-09-09T14:22:22;1.38;;;0.98;;
56718;SDS011;42597;40.636;0.278;2022-09-09T14:24:48;2.17;;;1.33;;
56718;SDS011;42597;40.636;0.278;2022-09-09T14:27:14;6.75;;;1.85;;
56718;SDS011;42597;40.636;0.278;2022-09-09T14:29:40;7.15;;;1.83;;
56718;SDS011;42597;40.636;0.278;2022-09-09T14:32:07;3.00;;;1.40;;
56718;SDS011;42597;40.636;0.278;2022-09-09T14:34:32;3.53;;;1.02;;
56718;SDS011;42597;40.636;0.278;2022-09-09T14:36:58;6.88;;;1.67;;
56718;SDS011;42597;40.636;0.278;2022-09-09T14:39:24;13.25;;;2.25;;
56718;SDS011;42597;40.636;0.278;2022-09-09T14:41:49;4.20;;;1.25;;
56718;SDS011;42597;40.636;0.278;2022-09-09T14:44:15;2.53;;;1.48;;
56718;SDS011;42597;40.636;0.278;2022-09-09T14:46:41;4.90;;;1.38;;
56718;SDS011;42597;40.636;0.278;2022-09-09T14:49:08;2.33;;;1.00;;
56718;SDS011;42597;40.636;0.278;2022-09-09T14:51:35;2.05;;;1.10;;
56718;SDS011;42597;40.636;0.278;2022-09-09T14:54:01;3.88;;;1.48;;
56718;SDS011;42597;40.636;0.278;2022-09-09T14:56:28;3.55;;;1.35;;
56718;SDS011;42597;40.636;0.278;2022-09-09T15:01:23;4.18;;;1.30;;
56718;SDS011;42597;40.636;0.278;2022-09-09T15:03:58;9.43;;;1.58;;
56718;SDS011;42597;40.636;0.278;2022-09-09T15:06:26;3.38;;;1.50;;
56718;SDS011;42597;40.636;0.278;2022-09-09T15:08:54;2.42;;;1.40;;
56718;SDS011;42597;40.636;0.278;2022-09-09T15:13:50;3.05;;;1.00;;
56718;SDS011;42597;40.636;0.278;2022-09-09T15:16:18;4.18;;;1.80;;
56718;SDS011;42597;40.636;0.278;2022-09-09T15:18:45;6.45;;;2.33;;
56718;SDS011;42597;40.636;0.278;2022-09-09T15:21:16;4.15;;;1.48;;
56718;SDS011;42597;40.636;0.278;2022-09-09T15:23:44;5.18;;;1.42;;
56718;SDS011;42597;40.636;0.278;2022-09-09T15:26:10;8.15;;;1.65;;
56718;SDS011;42597;40.636;0.278;2022-09-09T15:28:36;1.52;;;1.05;;
56718;SDS011;42597;40.636;0.278;2022-09-09T15:31:05;3.13;;;1.60;;
56718;SDS011;42597;40.636;0.278;2022-09-09T15:33:32;2.88;;;1.80;;
56718;SDS011;42597;40.636;0.278;2022-09-09T15:35:58;2.15;;;1.23;;
56718;SDS011;42597;40.636;0.278;2022-09-09T15:38:24;3.13;;;1.30;;
56718;SDS011;42597;40.636;0.278;2022-09-09T15:40:56;6.63;;;1.88;;
56718;SDS011;42597;40.636;0.278;2022-09-09T15:43:22;3.78;;;1.48;;
56718;SDS011;42597;40.636;0.278;2022-09-09T15:45:49;2.50;;;1.35;;
56718;SDS011;42597;40.636;0.278;2022-09-09T15:48:29;4.88;;;1.77;;
56718;SDS011;42597;40.636;0.278;2022-09-09T15:51:03;3.70;;;1.33;;
56718;SDS011;42597;40.636;0.278;2022-09-09T15:53:30;3.28;;;1.40;;
56718;SDS011;42597;40.636;0.278;2022-09-09T15:55:57;2.70;;;1.43;;
56718;SDS011;42597;40.636;0.278;2022-09-09T15:58:23;3.40;;;1.25;;
56718;SDS011;42597;40.636;0.278;2022-09-09T16:00:49;3.08;;;1.73;;
56718;SDS011;42597;40.636;0.278;2022-09-09T16:03:14;4.72;;;1.40;;
56718;SDS011;42597;40.636;0.278;2022-09-09T16:05:40;5.05;;;1.60;;
56718;SDS011;42597;40.636;0.278;2022-09-09T16:08:06;6.43;;;1.63;;
56718;SDS011;42597;40.636;0.278;2022-09-09T16:10:31;5.53;;;1.55;;
56718;SDS011;42597;40.636;0.278;2022-09-09T16:12:57;5.25;;;2.00;;
56718;SDS011;42597;40.636;0.278;2022-09-09T16:15:24;3.78;;;1.23;;
56718;SDS011;42597;40.636;0.278;2022-09-09T16:17:52;3.55;;;1.42;;
56718;SDS011;42597;40.636;0.278;2022-09-09T16:20:18;2.90;;;1.38;;
56718;SDS011;42597;40.636;0.278;2022-09-09T16:22:45;2.78;;;1.20;;
56718;SDS011;42597;40.636;0.278;2022-09-09T16:25:11;3.70;;;1.85;;
56718;SDS011;42597;40.636;0.278;2022-09-09T16:27:36;7.95;;;1.83;;
56718;SDS011;42597;40.636;0.278;2022-09-09T16:30:02;2.65;;;1.33;;
56718;SDS011;42597;40.636;0.278;2022-09-09T16:32:28;3.72;;;1.60;;
56718;SDS011;42597;40.636;0.278;2022-09-09T16:34:54;2.17;;;1.30;;
56718;SDS011;42597;40.636;0.278;2022-09-09T16:37:20;5.15;;;1.40;;
56718;SDS011;42597;40.636;0.278;2022-09-09T16:39:46;3.45;;;1.52;;
56718;SDS011;42597;40.636;0.278;2022-09-09T16:42:11;3.15;;;1.73;;
56718;SDS011;42597;40.636;0.278;2022-09-09T16:44:37;4.70;;;1.75;;
56718;SDS011;42597;40.636;0.278;2022-09-09T16:47:02;3.30;;;1.58;;
56718;SDS011;42597;40.636;0.278;2022-09-09T16:49:28;6.15;;;2.20;;
56718;SDS011;42597;40.636;0.278;2022-09-09T16:51:56;3.70;;;1.60;;
56718;SDS011;42597;40.636;0.278;2022-09-09T16:54:23;3.80;;;1.70;;
56718;SDS011;42597;40.636;0.278;2022-09-09T16:56:51;2.47;;;1.40;;
56718;SDS011;42597;40.636;0.278;2022-09-09T16:59:18;6.03;;;1.98;;
56718;SDS011;42597;40.636;0.278;2022-09-09T17:01:46;4.10;;;2.07;;
56718;SDS011;42597;40.636;0.278;2022-09-09T17:04:15;6.43;;;2.20;;
56718;SDS011;42597;40.636;0.278;2022-09-09T17:06:48;5.50;;;1.83;;
56718;SDS011;42597;40.636;0.278;2022-09-09T17:09:16;3.25;;;1.35;;
56718;SDS011;42597;40.636;0.278;2022-09-09T17:11:42;4.65;;;1.95;;
56718;SDS011;42597;40.636;0.278;2022-09-09T17:14:08;7.63;;;2.05;;
56718;SDS011;42597;40.636;0.278;2022-09-09T17:16:38;1.40;;;1.17;;
56718;SDS011;42597;40.636;0.278;2022-09-09T17:19:05;2.80;;;1.63;;
56718;SDS011;42597;40.636;0.278;2022-09-09T17:21:31;3.40;;;1.77;;
56718;SDS011;42597;40.636;0.278;2022-09-09T17:23:57;3.50;;;1.55;;
56718;SDS011;42597;40.636;0.278;2022-09-09T17:26:25;7.20;;;2.33;;
56718;SDS011;42597;40.636;0.278;2022-09-09T17:28:53;3.63;;;1.80;;
56718;SDS011;42597;40.636;0.278;2022-09-09T17:31:21;5.35;;;1.50;;
56718;SDS011;42597;40.636;0.278;2022-09-09T17:33:48;4.70;;;1.65;;
56718;SDS011;42597;40.636;0.278;2022-09-09T17:36:19;4.07;;;1.70;;